Time;durP1;ratioP1;P1;durP2;ratioP2;P2;SDS_P1;SDS_P2;PMS_P1;PMS_P2;Temp;Humidity;BMP_temperature;BMP_pressure;BME280_temperature;BME280_humidity;BME280_pressure;Samples;Min_cycle;Max_cycle;Signal;HPM_P1;HPM_P2
2022/08/29 00:02:09;;;;;;;5.47;5.07;;;;;;;17.83;83.27;95828.78;5028922;28;20040;-59
2022/08/29 00:04:35;;;;;;;12.63;5.35;;;;;;;17.83;83.35;95823.47;5037357;28;20025;-59
2022/08/29 00:07:00;;;;;;;5.65;5.07;;;;;;;17.80;83.63;95831.00;5033895;28;20428;-59
2022/08/29 00:09:26;;;;;;;6.25;5.75;;;;;;;17.74;84.14;95829.91;5046212;28;20041;-60
2022/08/29 00:11:51;;;;;;;5.30;4.90;;;;;;;17.68;84.43;95831.44;5031577;28;20132;-59
2022/08/29 00:14:17;;;;;;;6.00;5.43;;;;;;;17.61;84.89;95830.53;5038017;28;20119;-59
2022/08/29 00:16:42;;;;;;;7.25;5.65;;;;;;;17.53;85.86;95844.75;5039154;28;20040;-59
2022/08/29 00:19:08;;;;;;;5.70;5.30;;;;;;;17.52;85.46;95836.94;5046433;28;20082;-59
2022/08/29 00:21:33;;;;;;;6.28;5.57;;;;;;;17.52;85.61;95837.78;5044370;28;20057;-59
2022/08/29 00:23:59;;;;;;;5.97;5.13;;;;;;;17.53;85.33;95834.09;5042656;28;20495;-59
2022/08/29 00:26:24;;;;;;;6.13;5.45;;;;;;;17.53;85.22;95833.25;5032202;28;20037;-59
2022/08/29 00:28:50;;;;;;;6.55;5.72;;;;;;;17.45;86.34;95843.00;5037722;28;20021;-59
2022/08/29 00:31:15;;;;;;;6.55;5.28;;;;;;;17.42;85.64;95846.03;5037112;28;20104;-59
2022/08/29 00:33:40;;;;;;;5.70;5.30;;;;;;;17.42;86.36;95853.16;5040522;28;20101;-59
2022/08/29 00:36:08;;;;;;;6.32;5.82;;;;;;;17.42;86.41;95853.16;5032722;28;20030;-59
2022/08/29 00:38:33;;;;;;;5.20;4.78;;;;;;;17.40;85.68;95850.69;5030840;28;20217;-59
2022/08/29 00:40:58;;;;;;;5.80;5.30;;;;;;;17.42;86.25;95851.34;5028627;28;20041;-59
2022/08/29 00:43:28;;;;;;;5.45;5.05;;;;;;;17.42;86.17;95858.50;5030234;28;20481;-59
2022/08/29 00:46:31;;;;;;;6.55;5.65;;;;;;;17.33;87.94;95852.41;5028118;28;20106;-59
2022/08/29 00:49:01;;;;;;;5.82;5.43;;;;;;;17.33;86.50;95849.75;5037845;28;20116;-59
2022/08/29 00:51:27;;;;;;;6.68;6.18;;;;;;;17.30;87.06;95852.78;5044120;28;20029;-59
2022/08/29 00:53:58;;;;;;;7.53;6.00;;;;;;;17.27;87.01;95856.66;5034243;28;20033;-59
2022/08/29 00:56:25;;;;;;;6.07;5.57;;;;;;;17.21;88.06;95848.53;5045987;28;20034;-59
2022/08/29 00:58:56;;;;;;;6.82;6.22;;;;;;;17.22;87.64;95855.53;5049398;28;20025;-59
2022/08/29 01:01:22;;;;;;;5.90;5.40;;;;;;;17.24;86.97;95850.84;5041863;28;20073;-59
2022/08/29 01:03:49;;;;;;;5.53;5.13;;;;;;;17.23;87.02;95854.50;5040561;28;21365;-59
2022/08/29 01:06:14;;;;;;;6.75;6.25;;;;;;;17.26;87.10;95862.13;5019879;28;20460;-59
2022/08/29 01:08:40;;;;;;;6.97;6.38;;;;;;;17.26;86.50;95862.13;5043573;28;20086;-60
2022/08/29 01:13:53;;;;;;;6.45;5.82;;;;;;;17.17;87.85;95864.03;5048272;28;20040;-59
2022/08/29 01:16:19;;;;;;;6.60;6.10;;;;;;;17.12;88.39;95869.06;5033788;28;20028;-59
2022/08/29 01:18:49;;;;;;;9.02;5.95;;;;;;;17.05;88.73;95863.63;5032982;28;20009;-59
2022/08/29 01:21:58;;;;;;;6.25;5.75;;;;;;;17.00;89.67;95866.81;5047087;28;20108;-59
2022/08/29 01:24:44;;;;;;;5.60;5.30;;;;;;;16.96;89.04;95867.34;5036319;28;20048;-59
2022/08/29 01:27:13;;;;;;;6.35;5.95;;;;;;;16.96;88.48;95867.34;5037661;28;20508;-59
2022/08/29 01:29:38;;;;;;;7.15;6.55;;;;;;;16.92;89.18;95866.03;5045804;28;20477;-59
2022/08/29 01:32:04;;;;;;;6.63;6.03;;;;;;;16.86;89.41;95855.09;5049776;28;20083;-59
2022/08/29 01:34:31;;;;;;;6.68;6.13;;;;;;;16.86;89.78;95855.09;5034410;28;20033;-59
2022/08/29 01:37:00;;;;;;;6.32;5.72;;;;;;;16.88;89.65;95858.41;5035636;28;20153;-59
2022/08/29 01:39:29;;;;;;;6.28;5.75;;;;;;;16.85;90.79;95858.75;5035761;28;20037;-59
2022/08/29 01:41:55;;;;;;;6.18;5.68;;;;;;;16.83;91.98;95860.75;5043830;28;20417;-59
2022/08/29 01:44:24;;;;;;;6.18;5.68;;;;;;;16.76;91.55;95854.50;5035813;28;20041;-59
2022/08/29 01:46:53;;;;;;;7.07;6.20;;;;;;;16.69;91.61;95856.19;5036615;28;20045;-59
2022/08/29 01:49:20;;;;;;;7.03;5.72;;;;;;;16.68;90.90;95851.88;5035759;28;20021;-59
2022/08/29 01:51:45;;;;;;;6.55;6.15;;;;;;;16.67;90.76;95853.75;5035434;28;20481;-59
2022/08/29 01:54:11;;;;;;;6.93;6.25;;;;;;;16.68;90.81;95852.72;5036027;28;20026;-59
2022/08/29 01:56:40;;;;;;;6.38;5.85;;;;;;;16.70;90.19;95857.88;5047291;28;20048;-59
2022/08/29 01:59:10;;;;;;;5.93;5.43;;;;;;;16.70;89.87;95857.88;5035668;28;20112;-59
2022/08/29 02:01:42;;;;;;;6.47;6.07;;;;;;;16.69;90.34;95856.19;5045768;28;20036;-59
2022/08/29 02:04:08;;;;;;;6.50;6.07;;;;;;;16.68;90.22;95851.88;5034750;28;20500;-59
2022/08/29 02:06:34;;;;;;;6.47;5.97;;;;;;;16.70;89.76;95857.88;5044606;28;20292;-59
2022/08/29 02:09:00;;;;;;;7.72;6.43;;;;;;;16.72;90.00;95863.84;5042223;28;20040;-59
2022/08/29 02:11:26;;;;;;;6.47;5.82;;;;;;;16.70;90.28;95865.84;5038301;28;20021;-59
2022/08/29 02:13:54;;;;;;;6.03;5.63;;;;;;;16.64;91.30;95869.19;5051382;28;20017;-59
2022/08/29 02:16:23;;;;;;;8.35;6.60;;;;;;;16.60;92.16;95876.72;5046333;28;20056;-59
2022/08/29 02:18:49;;;;;;;6.88;6.25;;;;;;;16.57;91.33;95869.06;5049104;28;20373;-59
2022/08/29 02:21:17;;;;;;;7.18;6.57;;;;;;;16.54;92.12;95878.22;5049418;28;20059;-59
2022/08/29 02:23:43;;;;;;;6.60;6.00;;;;;;;16.47;92.57;95864.00;5039698;28;20033;-59
2022/08/29 02:26:09;;;;;;;6.47;5.93;;;;;;;16.42;93.23;95872.50;5045356;28;20025;-59
2022/08/29 02:28:36;;;;;;;6.28;5.82;;;;;;;16.41;92.85;95870.00;5023960;28;20056;-59
2022/08/29 02:31:03;;;;;;;10.82;6.65;;;;;;;16.41;92.81;95872.66;5041720;28;20052;-59
2022/08/29 02:33:30;;;;;;;7.47;6.43;;;;;;;16.38;93.32;95862.38;5034152;28;20036;-59
2022/08/29 02:35:56;;;;;;;6.05;5.63;;;;;;;16.37;92.99;95868.69;5035124;28;20453;-59
2022/08/29 02:38:21;;;;;;;6.35;5.75;;;;;;;16.41;92.57;95872.66;5039497;28;20477;-59
2022/08/29 02:40:48;;;;;;;7.13;6.43;;;;;;;16.41;92.23;95875.31;5037949;28;20049;-59
2022/08/29 02:43:15;;;;;;;6.90;6.40;;;;;;;16.41;92.47;95875.31;5042970;28;20520;-59
2022/08/29 02:45:42;;;;;;;6.65;6.22;;;;;;;16.37;92.22;95868.69;5040197;28;20032;-59
2022/08/29 02:48:10;;;;;;;8.43;6.40;;;;;;;16.38;92.46;95862.38;5032661;28;20451;-59
2022/08/29 02:50:40;;;;;;;6.38;5.97;;;;;;;16.36;92.97;95865.22;5044925;28;20018;-59
2022/08/29 02:53:05;;;;;;;6.70;6.20;;;;;;;16.38;93.74;95859.72;5042550;28;20029;-59
2022/08/29 02:55:31;;;;;;;6.13;5.63;;;;;;;16.38;93.04;95859.72;5037201;28;20021;-59
2022/08/29 02:57:57;;;;;;;6.40;5.82;;;;;;;16.40;93.04;95860.38;5039498;28;20017;-60
2022/08/29 03:00:25;;;;;;;7.20;6.70;;;;;;;16.40;92.92;95857.72;5035846;28;20112;-59
2022/08/29 03:02:52;;;;;;;6.78;6.30;;;;;;;16.37;93.86;95850.09;5050359;28;20135;-59
2022/08/29 03:05:21;;;;;;;7.03;6.38;;;;;;;16.29;93.96;95858.94;5045361;28;20511;-59
2022/08/29 03:07:46;;;;;;;8.48;6.45;;;;;;;16.25;94.45;95855.81;5041018;28;20021;-58
2022/08/29 03:10:13;;;;;;;6.97;6.40;;;;;;;16.27;93.93;95856.47;5047282;28;20027;-59
2022/08/29 03:12:39;;;;;;;7.10;6.50;;;;;;;16.24;93.85;95854.13;5032384;28;20040;-59
2022/08/29 03:15:06;;;;;;;6.90;6.40;;;;;;;16.24;94.12;95855.97;5034365;28;20111;-59
2022/08/29 03:17:32;;;;;;;7.38;6.63;;;;;;;16.25;94.26;95847.00;5042633;28;20029;-59
2022/08/29 03:19:57;;;;;;;6.70;6.20;;;;;;;16.23;93.99;95846.34;5048417;28;20515;-59
2022/08/29 03:22:24;;;;;;;7.20;6.50;;;;;;;16.17;94.69;95845.22;5047879;28;20021;-59
2022/08/29 03:24:50;;;;;;;6.78;6.20;;;;;;;16.12;94.96;95845.72;5033298;28;20032;-59
2022/08/29 03:27:15;;;;;;;7.43;6.55;;;;;;;16.09;95.22;95854.03;5040184;28;20025;-59
2022/08/29 03:29:40;;;;;;;6.13;5.68;;;;;;;16.08;95.49;95851.56;5036207;28;20029;-59
2022/08/29 03:32:06;;;;;;;7.57;6.97;;;;;;;16.09;95.40;95843.41;5039003;28;20127;-59
2022/08/29 03:34:32;;;;;;;6.60;6.10;;;;;;;16.03;96.12;95850.25;5036828;28;20104;-59
2022/08/29 03:36:58;;;;;;;7.75;6.97;;;;;;;15.98;96.15;95847.28;5049679;28;20027;-59
2022/08/29 03:39:24;;;;;;;6.55;6.10;;;;;;;16.01;95.42;95846.91;5048666;28;20029;-59
2022/08/29 03:41:50;;;;;;;7.43;6.72;;;;;;;16.00;95.62;95839.16;5031578;28;20056;-59
2022/08/29 03:44:15;;;;;;;8.18;7.47;;;;;;;15.99;95.76;95840.97;5044065;28;20031;-59
2022/08/29 03:46:41;;;;;;;7.07;6.57;;;;;;;15.98;95.19;95847.28;5037246;28;20026;-59
2022/08/29 03:49:07;;;;;;;7.18;6.60;;;;;;;15.96;95.11;95837.84;5034417;28;20024;-59
2022/08/29 03:51:34;;;;;;;7.22;6.63;;;;;;;15.88;96.58;95842.16;5040806;28;20018;-59
2022/08/29 03:53:59;;;;;;;6.93;6.43;;;;;;;15.86;95.97;95844.13;5031053;28;20021;-59
2022/08/29 03:56:26;;;;;;;6.07;5.68;;;;;;;15.88;95.93;95857.25;5040501;28;20035;-59
2022/08/29 03:58:51;;;;;;;7.75;7.10;;;;;;;15.90;95.81;95855.28;5046305;28;20048;-58
2022/08/29 04:01:18;;;;;;;6.80;6.30;;;;;;;15.90;95.40;95848.13;5039381;28;20072;-59
2022/08/29 04:03:44;;;;;;;7.60;7.00;;;;;;;15.88;95.42;95849.28;5034714;28;20548;-58
2022/08/29 04:06:10;;;;;;;6.45;6.05;;;;;;;15.86;95.74;95848.63;5045073;28;20096;-59
2022/08/29 04:08:36;;;;;;;7.15;6.63;;;;;;;15.84;95.74;95856.75;5039910;28;20464;-59
2022/08/29 04:11:11;;;;;;;7.40;6.70;;;;;;;15.83;96.01;95857.75;5042823;28;20040;-59
2022/08/29 04:13:36;;;;;;;;;;;;;;;15.80;97.25;95865.22;5035808;28;20120;-61
2022/08/29 04:16:10;;;;;;;7.47;6.85;;;;;;;15.78;95.95;95872.53;5029864;28;19995;-61
2022/08/29 04:18:36;;;;;;;7.53;6.93;;;;;;;15.76;95.84;95876.19;5043517;28;20075;-61
2022/08/29 04:21:03;;;;;;;7.32;6.57;;;;;;;15.75;96.14;95886.97;5037508;28;20119;-61
2022/08/29 04:23:29;;;;;;;7.43;6.82;;;;;;;15.69;97.14;95879.69;5039014;28;20112;-60
2022/08/29 04:25:54;;;;;;;7.82;7.28;;;;;;;15.67;97.24;95873.72;5033646;28;20033;-60
2022/08/29 04:28:19;;;;;;;7.43;6.82;;;;;;;15.68;97.46;95878.88;5041894;28;20021;-60
2022/08/29 04:30:50;;;;;;;10.07;7.05;;;;;;;15.69;97.55;95882.31;5042124;28;20509;-60
2022/08/29 04:33:16;;;;;;;7.35;6.70;;;;;;;15.67;97.24;95898.44;5041291;28;20497;-62
2022/08/29 04:35:42;;;;;;;8.68;6.85;;;;;;;15.64;98.06;95898.78;5035961;28;20100;-60
2022/08/29 04:38:08;;;;;;;6.93;6.43;;;;;;;15.60;97.72;95903.59;5035050;28;20116;-60
2022/08/29 04:40:35;;;;;;;7.57;6.88;;;;;;;15.62;97.28;95911.41;5031301;28;20050;-62
2022/08/29 04:43:01;;;;;;;7.80;7.20;;;;;;;15.65;96.67;95911.06;5030033;28;20034;-62
2022/08/29 04:45:26;;;;;;;7.68;7.03;;;;;;;15.61;96.92;95912.38;5043085;28;20044;-62
2022/08/29 04:47:52;;;;;;;7.05;6.40;;;;;;;15.63;96.61;95918.34;5037799;28;20507;-62
2022/08/29 04:50:22;;;;;;;7.32;6.72;;;;;;;15.60;96.86;95916.84;5048106;28;20119;-62
2022/08/29 04:52:49;;;;;;;7.78;6.93;;;;;;;15.56;97.49;95927.97;5029551;28;20037;-62
2022/08/29 04:55:16;;;;;;;6.78;6.38;;;;;;;15.63;96.52;95923.66;5030202;28;20504;-62
2022/08/29 04:57:41;;;;;;;7.03;6.38;;;;;;;15.62;96.95;95929.97;5030623;28;20060;-62
2022/08/29 05:00:12;;;;;;;7.55;6.45;;;;;;;15.64;96.89;95929.78;5041791;28;20061;-62
2022/08/29 05:02:39;;;;;;;7.90;7.32;;;;;;;15.57;97.85;95940.22;5032286;28;20498;-60
2022/08/29 05:05:06;;;;;;;7.20;6.60;;;;;;;15.53;97.80;95938.91;5049365;28;20020;-62
2022/08/29 05:07:31;;;;;;;7.65;7.05;;;;;;;15.47;99.36;95937.75;5046002;28;20508;-63
2022/08/29 05:10:05;;;;;;;7.50;6.90;;;;;;;15.43;99.19;95944.38;5041207;28;20033;-62
2022/08/29 05:12:32;;;;;;;7.53;6.93;;;;;;;15.45;98.86;95932.63;5052043;28;20032;-62
2022/08/29 05:14:58;;;;;;;7.63;7.03;;;;;;;15.49;98.64;95934.94;5039621;28;20476;-62
2022/08/29 05:17:24;;;;;;;8.88;7.47;;;;;;;15.54;98.10;95937.91;5047943;28;20631;-62
2022/08/29 05:19:49;;;;;;;7.25;6.65;;;;;;;15.47;99.03;95932.44;5035865;28;20041;-62
2022/08/29 05:22:16;;;;;;;7.75;7.00;;;;;;;15.41;99.75;95943.72;5036698;28;20029;-62
2022/08/29 05:24:42;;;;;;;7.63;6.72;;;;;;;15.42;99.40;95942.72;5049132;28;20492;-62
2022/08/29 05:27:09;;;;;;;8.18;7.38;;;;;;;15.49;99.01;95948.22;5041512;28;20029;-62
2022/08/29 05:29:39;;;;;;;8.25;7.45;;;;;;;15.47;98.99;95954.50;5039870;28;20017;-65
2022/08/29 05:32:07;;;;;;;7.90;7.20;;;;;;;15.45;99.64;95953.84;5045721;28;20495;-64
2022/08/29 05:34:33;;;;;;;7.85;7.15;;;;;;;15.42;99.86;95964.81;5046669;28;20484;-62
2022/08/29 05:36:59;;;;;;;7.40;6.75;;;;;;;15.38;100.00;95955.53;5046509;28;20025;-62
2022/08/29 05:39:25;;;;;;;7.68;6.78;;;;;;;15.42;99.27;95956.84;5025618;28;20499;-60
2022/08/29 05:41:54;;;;;;;8.45;6.80;;;;;;;15.50;98.87;95955.19;5046568;28;20056;-62
2022/08/29 05:44:19;;;;;;;7.43;6.93;;;;;;;15.52;98.95;95955.84;5048629;28;20591;-62
2022/08/29 05:46:45;;;;;;;7.38;6.85;;;;;;;15.50;99.12;95966.63;5040602;28;20021;-62
2022/08/29 05:49:10;;;;;;;7.30;6.70;;;;;;;15.51;99.83;95965.63;5044547;28;20027;-62
2022/08/29 05:51:36;;;;;;;8.00;7.35;;;;;;;15.50;99.82;95965.78;5043641;28;20017;-62
2022/08/29 05:54:02;;;;;;;8.25;7.60;;;;;;;15.56;99.54;95970.41;5041656;28;20017;-62
2022/08/29 05:56:29;;;;;;;7.90;7.15;;;;;;;15.58;99.16;95958.66;5042910;28;20337;-61
2022/08/29 05:58:54;;;;;;;8.48;6.43;;;;;;;15.67;98.03;95967.44;5023788;28;20063;-62
2022/08/29 06:01:26;;;;;;;8.35;7.57;;;;;;;15.65;100.00;95961.47;5043090;28;20468;-61
2022/08/29 06:03:53;;;;;;;7.00;6.47;;;;;;;15.59;100.00;95976.22;5040641;28;20076;-61
2022/08/29 06:06:20;;;;;;;8.10;7.30;;;;;;;15.64;99.16;95973.09;5043032;28;20025;-61
2022/08/29 06:08:46;;;;;;;7.47;6.78;;;;;;;15.66;98.73;95981.72;5044303;28;20013;-61
2022/08/29 06:11:17;;;;;;;8.05;7.45;;;;;;;15.68;98.57;95973.56;5040992;28;20075;-61
2022/08/29 06:13:42;;;;;;;7.85;7.25;;;;;;;15.70;98.38;95984.88;5031799;28;20509;-61
2022/08/29 06:16:11;;;;;;;7.53;6.93;;;;;;;15.74;98.40;95988.84;5033205;28;20032;-61
2022/08/29 06:18:37;;;;;;;10.77;8.00;;;;;;;15.78;98.29;95997.28;5036922;28;20025;-61
2022/08/29 06:21:04;;;;;;;8.00;7.40;;;;;;;15.80;98.47;95997.94;5046131;28;20021;-61
2022/08/29 06:23:29;;;;;;;8.77;7.80;;;;;;;15.86;98.39;95997.28;5045137;28;20072;-61
2022/08/29 06:25:58;;;;;;;10.15;7.40;;;;;;;15.95;97.16;95991.00;5039906;28;20402;-61
2022/08/29 06:28:30;;;;;;;7.78;7.18;;;;;;;15.93;98.48;95995.66;5033235;28;20427;-61
2022/08/29 06:30:56;;;;;;;8.23;7.40;;;;;;;15.86;98.87;95995.44;5034642;28;20112;-62
2022/08/29 06:33:22;;;;;;;7.85;7.15;;;;;;;15.92;98.41;95994.00;5034315;28;20083;-62
2022/08/29 06:35:47;;;;;;;7.93;7.35;;;;;;;16.17;97.32;95999.25;5035488;28;20025;-62
2022/08/29 06:38:12;;;;;;;8.63;7.97;;;;;;;16.50;96.33;96006.31;5049137;28;20021;-62
2022/08/29 06:40:38;;;;;;;8.07;7.38;;;;;;;16.83;94.29;96000.88;5042256;28;20033;-62
2022/08/29 06:43:03;;;;;;;8.10;7.50;;;;;;;17.18;92.77;96004.00;5043591;28;20021;-62
2022/08/29 06:45:29;;;;;;;8.20;7.47;;;;;;;17.64;91.09;96005.03;5027835;28;20120;-63
2022/08/29 06:47:54;;;;;;;8.88;8.07;;;;;;;18.11;89.59;96011.16;5040849;28;20024;-63
2022/08/29 06:50:19;;;;;;;8.57;7.68;;;;;;;18.49;86.66;96012.91;5023884;28;20112;-61
2022/08/29 06:52:45;;;;;;;8.20;7.38;;;;;;;18.87;84.09;96007.47;5035984;28;20029;-61
2022/08/29 06:55:11;;;;;;;6.72;6.18;;;;;;;19.30;83.50;96007.56;5040114;28;20029;-62
2022/08/29 06:57:43;;;;;;;6.85;6.35;;;;;;;19.72;80.51;96002.41;5044940;28;20600;-62
2022/08/29 07:00:12;;;;;;;6.85;6.35;;;;;;;20.17;76.14;96012.06;5033802;28;20492;-62
2022/08/29 07:02:38;;;;;;;8.30;7.57;;;;;;;20.41;74.51;96007.28;5044225;28;20028;-62
2022/08/29 07:05:05;;;;;;;11.02;8.20;;;;;;;20.59;74.02;96012.94;5040698;28;20107;-60
2022/08/29 07:07:30;;;;;;;7.10;6.60;;;;;;;20.86;73.14;96007.75;5034069;28;20405;-59
2022/08/29 07:09:55;;;;;;;6.65;6.15;;;;;;;21.05;72.27;95997.31;5034462;28;20021;-60
2022/08/29 07:12:22;;;;;;;5.93;5.55;;;;;;;21.30;70.70;96002.13;5038628;28;20025;-60
2022/08/29 07:14:47;;;;;;;8.90;5.57;;;;;;;21.73;70.36;95999.13;5036792;28;20026;-60
2022/08/29 07:17:13;;;;;;;5.72;5.22;;;;;;;22.23;67.81;96000.59;5037000;28;20026;-60
2022/08/29 07:19:38;;;;;;;5.53;5.20;;;;;;;22.57;65.34;96001.34;5038618;28;20033;-60
2022/08/29 07:22:03;;;;;;;6.38;5.88;;;;;;;22.87;63.96;96005.41;5032039;28;20924;-60
2022/08/29 07:24:29;;;;;;;6.65;6.15;;;;;;;22.91;65.09;96011.19;5033575;28;20045;-60
2022/08/29 07:26:54;;;;;;;6.05;5.55;;;;;;;23.18;63.29;96012.72;5042598;28;20067;-60
2022/08/29 07:29:21;;;;;;;5.53;5.03;;;;;;;23.06;61.05;96008.22;5035683;28;20037;-61
2022/08/29 07:31:47;;;;;;;6.85;5.30;;;;;;;23.13;61.52;96009.00;5032557;28;20021;-61
2022/08/29 07:34:13;;;;;;;5.57;5.07;;;;;;;23.34;61.26;95999.03;5029223;28;20037;-61
2022/08/29 07:36:39;;;;;;;6.07;5.57;;;;;;;23.35;60.64;95988.06;5030894;28;20040;-61
2022/08/29 07:39:08;;;;;;;6.75;5.47;;;;;;;23.34;60.00;95999.03;5035069;28;20455;-61
2022/08/29 07:41:34;;;;;;;5.00;4.60;;;;;;;23.60;60.01;95990.78;5039223;28;20037;-61
2022/08/29 07:43:59;;;;;;;5.18;4.85;;;;;;;23.83;61.18;95993.94;5041755;28;20775;-61
2022/08/29 07:46:25;;;;;;;5.22;4.72;;;;;;;24.14;58.77;96001.16;5034862;28;20036;-61
2022/08/29 07:48:51;;;;;;;5.65;4.68;;;;;;;24.30;56.57;95996.25;5041369;28;20025;-61
2022/08/29 07:51:21;;;;;;;4.43;4.13;;;;;;;24.46;55.38;95990.28;5041684;28;20025;-61
2022/08/29 07:53:48;;;;;;;5.10;4.70;;;;;;;24.59;56.63;95988.53;5041117;28;20500;-61
2022/08/29 07:56:17;;;;;;;4.60;4.20;;;;;;;24.57;56.82;95994.13;5042135;28;20028;-62
2022/08/29 07:58:42;;;;;;;5.20;4.80;;;;;;;24.71;55.13;95999.38;5041535;28;20104;-61
2022/08/29 08:01:07;;;;;;;5.13;4.63;;;;;;;24.72;54.56;95992.94;5041506;28;20104;-61
2022/08/29 08:03:34;;;;;;;5.00;4.53;;;;;;;24.93;55.35;95996.25;5023143;28;20049;-61
2022/08/29 08:06:01;;;;;;;4.00;3.80;;;;;;;25.04;56.20;95990.09;5038825;28;20112;-60
2022/08/29 08:08:26;;;;;;;4.68;4.38;;;;;;;25.14;52.77;95993.06;5042332;28;20727;-61
2022/08/29 08:10:52;;;;;;;6.45;5.88;;;;;;;25.36;52.78;95992.56;5040588;28;20113;-61
2022/08/29 08:13:18;;;;;;;5.63;5.15;;;;;;;25.83;53.16;95993.78;5042560;28;20112;-62
2022/08/29 08:15:44;;;;;;;4.97;4.57;;;;;;;26.39;51.94;95986.22;5035716;28;20623;-61
2022/08/29 08:18:09;;;;;;;5.05;4.60;;;;;;;26.19;50.48;95985.75;5033674;28;20087;-61
2022/08/29 08:20:35;;;;;;;4.85;4.50;;;;;;;25.76;50.74;95985.78;5036092;28;20029;-61
2022/08/29 08:23:00;;;;;;;4.78;4.30;;;;;;;26.00;51.59;95981.28;5036487;28;20791;-61
2022/08/29 08:25:26;;;;;;;4.68;4.28;;;;;;;26.10;50.16;95985.25;5029561;28;20029;-62
2022/08/29 08:27:52;;;;;;;6.22;4.20;;;;;;;26.22;50.63;95993.38;5026997;28;20029;-61
2022/08/29 08:30:18;;;;;;;4.10;3.80;;;;;;;26.42;49.95;95990.34;5043928;28;20459;-62
2022/08/29 08:32:45;;;;;;;4.20;3.90;;;;;;;26.50;48.05;95984.56;5036553;28;20037;-61
2022/08/29 08:35:11;;;;;;;4.30;4.00;;;;;;;26.16;50.57;95984.31;5038915;28;20236;-61
2022/08/29 08:37:37;;;;;;;4.32;4.03;;;;;;;26.08;49.47;95988.16;5038410;28;20108;-61
2022/08/29 08:40:03;;;;;;;4.60;4.20;;;;;;;26.55;48.46;95995.47;5040256;28;20044;-61
2022/08/29 08:42:29;;;;;;;5.97;4.10;;;;;;;26.45;46.93;95997.97;5042239;28;20601;-61
2022/08/29 08:45:14;;;;;;;4.87;4.47;;;;;;;26.41;46.23;95996.78;5041439;28;20033;-61
2022/08/29 08:47:42;;;;;;;4.22;3.92;;;;;;;26.26;47.96;95989.16;5039619;28;20279;-61
2022/08/29 08:50:25;;;;;;;4.63;4.03;;;;;;;26.34;45.65;95999.63;5042684;28;20036;-61
2022/08/29 08:53:05;;;;;;;4.63;3.70;;;;;;;26.39;46.03;95998.88;5042089;28;20033;-61
2022/08/29 08:55:43;;;;;;;4.57;4.28;;;;;;;26.04;47.44;95989.69;5038653;28;20035;-61
2022/08/29 08:58:31;;;;;;;4.80;4.40;;;;;;;25.70;48.51;95989.44;5038459;28;20017;-61
2022/08/29 09:01:03;;;;;;;4.15;3.85;;;;;;;25.57;49.01;95983.16;5039524;28;20067;-61
2022/08/29 09:03:50;;;;;;;4.47;4.07;;;;;;;25.68;48.96;95983.44;5042000;28;20029;-61
2022/08/29 09:06:25;;;;;;;4.15;3.88;;;;;;;25.86;47.92;95985.22;5044609;28;20041;-61
2022/08/29 09:09:11;;;;;;;3.78;3.58;;;;;;;26.52;45.68;95982.47;5038511;28;20017;-61
2022/08/29 09:12:06;;;;;;;3.72;3.50;;;;;;;26.15;46.93;95988.91;5040252;28;20345;-61
2022/08/29 09:14:45;;;;;;;4.07;3.78;;;;;;;25.99;48.26;95979.63;5041940;28;20049;-61
2022/08/29 09:17:19;;;;;;;3.88;3.67;;;;;;;25.98;49.30;95979.84;5042468;28;20151;-61
2022/08/29 09:19:45;;;;;;;6.10;4.30;;;;;;;25.89;49.12;95974.81;5038829;28;20511;-61
2022/08/29 09:22:18;;;;;;;4.20;3.60;;;;;;;25.80;47.90;95978.06;5043721;28;20074;-61
2022/08/29 09:24:48;;;;;;;5.03;3.97;;;;;;;25.69;49.53;95983.19;5037746;28;20108;-61
2022/08/29 09:27:21;;;;;;;4.43;4.10;;;;;;;25.90;49.51;95981.00;5039849;28;20028;-61
2022/08/29 09:29:48;;;;;;;4.35;3.95;;;;;;;25.89;48.88;95979.38;5033620;28;20485;-61
2022/08/29 09:32:15;;;;;;;4.35;4.10;;;;;;;26.58;46.52;95981.50;5042957;28;20036;-61
2022/08/29 09:34:46;;;;;;;3.95;3.65;;;;;;;25.84;48.17;95974.66;5034254;28;20074;-63
2022/08/29 09:37:33;;;;;;;4.63;4.22;;;;;;;25.78;49.33;95975.59;5042477;28;20013;-63
2022/08/29 09:40:09;;;;;;;4.65;4.25;;;;;;;25.75;48.69;95967.97;5037863;28;20029;-62
2022/08/29 09:42:38;;;;;;;4.60;4.25;;;;;;;25.80;49.75;95962.72;5036091;28;20037;-62
2022/08/29 09:45:16;;;;;;;6.10;4.10;;;;;;;26.10;47.34;95966.38;5039359;28;20025;-61
2022/08/29 09:47:42;;;;;;;4.30;4.00;;;;;;;25.89;48.62;95969.41;5044264;28;20021;-62
2022/08/29 09:50:19;;;;;;;4.35;4.05;;;;;;;26.16;46.72;95970.81;5043749;28;20025;-62
2022/08/29 09:53:00;;;;;;;3.80;3.60;;;;;;;25.74;48.74;95961.75;5045259;28;20056;-62
2022/08/29 09:55:28;;;;;;;4.22;3.92;;;;;;;25.91;48.83;95960.28;5040584;28;20059;-62
2022/08/29 09:58:09;;;;;;;4.25;3.95;;;;;;;26.21;47.12;95968.28;5043087;28;20029;-62
2022/08/29 10:00:42;;;;;;;4.78;3.90;;;;;;;26.51;46.10;95958.38;5041419;28;20055;-62
2022/08/29 10:03:18;;;;;;;4.60;4.30;;;;;;;26.78;45.89;95957.88;5030291;28;20547;-62
2022/08/29 10:05:45;;;;;;;4.57;4.25;;;;;;;26.86;45.78;95960.25;5047118;28;20032;-61
2022/08/29 10:08:34;;;;;;;4.20;3.90;;;;;;;27.12;44.87;95955.31;5047029;28;20075;-62
2022/08/29 10:11:04;;;;;;;4.20;3.90;;;;;;;27.20;43.72;95948.72;5034693;28;20037;-62
2022/08/29 10:13:35;;;;;;;4.07;3.78;;;;;;;26.96;44.06;95944.22;5039109;28;20017;-62
2022/08/29 10:16:16;;;;;;;4.00;3.70;;;;;;;26.82;43.52;95940.94;5048211;28;20472;-62
2022/08/29 10:18:51;;;;;;;4.07;3.80;;;;;;;26.97;44.30;95943.19;5035382;28;20044;-62
2022/08/29 10:21:36;;;;;;;4.30;4.00;;;;;;;27.19;45.62;95930.88;5046605;28;20032;-62
2022/08/29 10:24:13;;;;;;;4.30;3.83;;;;;;;27.69;44.68;95935.56;5038836;28;20026;-62
2022/08/29 10:26:59;;;;;;;3.78;3.58;;;;;;;28.03;43.69;95930.13;5047376;28;20033;-62
2022/08/29 10:29:58;;;;;;;3.88;3.50;;;;;;;28.49;42.07;95920.22;5047422;28;20835;-62
2022/08/29 10:32:48;;;;;;;4.72;3.63;;;;;;;28.31;42.74;95909.44;5041199;28;20588;-63
2022/08/29 10:35:13;;;;;;;3.63;3.42;;;;;;;28.61;43.74;95912.81;5032646;28;20064;-62
2022/08/29 10:37:48;;;;;;;6.67;3.93;;;;;;;28.59;41.84;95909.53;5040264;28;20060;-63
2022/08/29 10:40:13;;;;;;;;;;;;;;;29.39;41.04;95909.06;5039204;28;20348;-62
2022/08/29 10:42:41;;;;;;;4.00;3.70;;;;;;;29.81;41.21;95910.25;5042522;28;20002;-63
2022/08/29 10:45:16;;;;;;;3.80;3.50;;;;;;;29.83;39.76;95904.56;5041797;28;20487;-62
2022/08/29 10:48:05;;;;;;;3.53;3.33;;;;;;;29.69;39.92;95915.03;5047304;28;20108;-62
2022/08/29 10:50:51;;;;;;;3.55;3.35;;;;;;;29.71;40.91;95899.31;5030120;28;20025;-62
2022/08/29 10:53:33;;;;;;;4.05;3.63;;;;;;;29.83;40.21;95899.16;5038253;28;20028;-62
2022/08/29 10:56:31;;;;;;;3.45;3.25;;;;;;;29.86;39.36;95894.03;5039492;28;20508;-62
2022/08/29 10:59:17;;;;;;;4.00;3.70;;;;;;;30.25;40.12;95895.66;5037317;28;20049;-62
2022/08/29 11:01:54;;;;;;;3.50;3.30;;;;;;;30.57;38.77;95891.97;5043550;28;20030;-62
2022/08/29 11:04:25;;;;;;;3.20;3.00;;;;;;;30.56;39.22;95887.63;5040320;28;20087;-62
2022/08/29 11:06:54;;;;;;;3.63;3.33;;;;;;;30.39;40.36;95889.72;5040040;28;20459;-62
2022/08/29 11:09:41;;;;;;;3.55;3.30;;;;;;;30.41;38.30;95888.38;5042356;28;20451;-63
2022/08/29 11:12:45;;;;;;;3.55;3.35;;;;;;;30.52;38.38;95883.03;5047563;28;20839;-62
2022/08/29 11:15:23;;;;;;;3.78;3.47;;;;;;;30.54;38.79;95875.41;5030395;28;20818;-62
2022/08/29 11:17:57;;;;;;;3.25;3.00;;;;;;;31.24;37.09;95883.28;5030547;28;20024;-62
2022/08/29 11:20:31;;;;;;;3.08;2.88;;;;;;;31.44;34.90;95876.22;5036069;28;20049;-62
2022/08/29 11:23:32;;;;;;;3.42;3.22;;;;;;;31.72;34.90;95880.31;5039723;28;20547;-60
2022/08/29 11:26:03;;;;;;;3.95;3.45;;;;;;;30.87;36.44;95874.19;5036000;28;20099;-60
2022/08/29 11:28:56;;;;;;;3.40;3.20;;;;;;;31.13;36.96;95870.69;5039388;28;20043;-60
2022/08/29 11:31:45;;;;;;;3.17;2.97;;;;;;;31.39;37.42;95868.88;5043257;28;20036;-60
2022/08/29 11:34:13;;;;;;;3.45;3.25;;;;;;;31.83;35.09;95866.69;5033769;28;20083;-60
2022/08/29 11:37:06;;;;;;;4.22;3.20;;;;;;;31.72;35.99;95868.59;5033174;28;20451;-60
2022/08/29 11:39:49;;;;;;;3.28;3.08;;;;;;;31.86;33.88;95869.69;5041317;28;20025;-60
2022/08/29 11:42:18;;;;;;;3.37;3.17;;;;;;;31.88;34.23;95869.41;5043860;28;20135;-60
2022/08/29 11:44:50;;;;;;;3.67;3.38;;;;;;;32.44;32.57;95864.94;5038276;28;20064;-60
2022/08/29 11:47:34;;;;;;;3.75;3.03;;;;;;;31.97;33.28;95862.34;5042761;28;20112;-60
2022/08/29 11:50:27;;;;;;;4.00;3.60;;;;;;;32.32;31.59;95853.50;5040561;28;20033;-60